Impacts METAR Board
IDs:

KPDX - Portland Intl Arpt, OR, US

Updated at: 1300 UTC 25 Jun 2019
Potential Impact None Slight Moderate High
Time 25/01Z 25/02Z 25/03Z 25/04Z 25/05Z 25/06Z 25/07Z 25/08Z 25/09Z 25/10Z 25/11Z 25/12Z 25/13Z
Temp71 70 69 67 64 62 61 58 59 58 57 57 56
Dewpt45 45 44 45 46 46 48 48 49 48 48 47 48
Altim29.95 29.93 29.92 29.91 29.92 29.91 29.91 29.90 29.89 29.89 29.89 29.89 29.89
VIS10 10 10 10 10 10 10 10 10 10 10 10 10
CIG250 250 250 -- -- -- -- -- -- -- -- 120 220
CoverBKNBKNBKNFEWFEWFEWFEWCLRCLRCLRFEWOVCBKN
FltCatVFRVFRVFRVFRVFRVFRVFRVFRVFRVFRVFRVFRVFR
WX--------------------------
WDir310300350290000270290300320300270
WSpd4 7 5 5 0 0 0 4 3 4 4 6 3
WGst-- -- -- -- -- -- -- -- -- -- -- -- --
Raw hourly METARs
KPDX 250053Z 31004KT 10SM FEW050 BKN250 22/07 A2995 RMK AO2 SLP140 T02170072
KPDX 250153Z 30007KT 10SM FEW050 FEW190 BKN250 21/07 A2993 RMK AO2 SLP135 T02110072
KPDX 250253Z 35005KT 10SM FEW050 FEW190 BKN250 21/07 A2992 RMK AO2 SLP132 T02060067 56016
KPDX 250353Z 29005KT 10SM FEW190 FEW250 19/07 A2991 RMK AO2 SLP129 T01940072
KPDX 250453Z 00000KT 10SM FEW180 FEW250 18/08 A2992 RMK AO2 SLP130 T01780078
KPDX 250553Z 00000KT 10SM FEW180 FEW250 17/08 A2991 RMK AO2 SLP128 T01670078 10222 20161 56004
KPDX 250653Z 00000KT 10SM FEW250 16/09 A2991 RMK AO2 SLP126 T01610089
KPDX 250753Z 27004KT 10SM CLR 14/09 A2990 RMK AO2 SLP123 T01440089 402220106
KPDX 250853Z 29003KT 10SM CLR 15/09 A2989 RMK AO2 SLP121 T01500094 56007
KPDX 250953Z 30004KT 10SM CLR 14/09 A2989 RMK AO2 SLP121 T01440089
KPDX 251053Z 32004KT 10SM FEW140 FEW190 14/09 A2989 RMK AO2 SLP120 T01390089
KPDX 251153Z 30006KT 10SM BKN120 OVC190 14/08 A2989 RMK AO2 SLP119 T01390083 10167 20133 58002
KPDX 251253Z 27003KT 10SM FEW080 BKN220 13/09 A2989 RMK AO2 SLP121 T01330089



Page loaded:  13:31 UTC  |   06:31 AM Pacific  |   07:31 AM Mountain  |   08:31 AM Central  |   09:31 AM Eastern

 

ADVISORIES

FORECASTS

FORECASTS

OBSERVATIONS

USER TOOLS

ABOUT US